Time;durP1;ratioP1;P1;durP2;ratioP2;P2;SDS_P1;SDS_P2;PMS_P1;PMS_P2;Temp;Humidity;BMP_temperature;BMP_pressure;BME280_temperature;BME280_humidity;BME280_pressure;Samples;Min_cycle;Max_cycle;Signal;HPM_P1;HPM_P2
2023/12/31 00:00:00;;;;;;;9.00;4.25;;;16.60;90.20;;;;;;5014279;28;20385;-67
2023/12/31 00:02:27;;;;;;;6.30;4.05;;;;;;;;;;5030459;28;20058;-67
2023/12/31 00:04:53;;;;;;;7.75;4.00;;;16.80;90.20;;;;;;5014397;28;20057;-66
2023/12/31 00:07:19;;;;;;;6.88;3.65;;;16.70;90.10;;;;;;5047417;28;20050;-67
2023/12/31 00:09:45;;;;;;;7.32;3.30;;;16.90;90.10;;;;;;5015363;28;20058;-67
2023/12/31 00:12:11;;;;;;;7.65;3.60;;;16.80;90.00;;;;;;5046547;28;20050;-66
2023/12/31 00:14:37;;;;;;;6.15;3.30;;;17.20;87.50;;;;;;5030592;28;20064;-66
2023/12/31 00:17:03;;;;;;;6.38;3.70;;;16.80;89.80;;;;;;5014113;28;20069;-67
2023/12/31 00:19:29;;;;;;;5.53;2.80;;;17.00;89.80;;;;;;5013494;28;20526;-64
2023/12/31 00:21:55;;;;;;;6.70;3.05;;;;;;;;;;5046601;28;20038;-66
2023/12/31 00:24:21;;;;;;;6.10;3.20;;;;;;;;;;5012750;28;20500;-66
2023/12/31 00:26:47;;;;;;;6.00;2.95;;;;;;;;;;5012961;28;20064;-66
2023/12/31 00:29:13;;;;;;;5.22;2.80;;;17.00;89.40;;;;;;5012991;28;20050;-67
2023/12/31 00:31:39;;;;;;;5.57;2.80;;;17.10;89.50;;;;;;5013214;28;20061;-66
2023/12/31 00:34:05;;;;;;;5.82;2.92;;;17.00;89.40;;;;;;5047178;28;20447;-64
2023/12/31 00:36:31;;;;;;;5.10;2.33;;;;;;;;;;5030410;28;20128;-65
2023/12/31 00:38:57;;;;;;;6.22;3.00;;;17.10;89.40;;;;;;5015387;28;20450;-64
2023/12/31 00:41:23;;;;;;;6.78;2.83;;;;;;;;;;5045783;28;20053;-65
2023/12/31 00:43:49;;;;;;;5.90;2.72;;;16.80;89.30;;;;;;5029560;28;20046;-67
2023/12/31 00:46:14;;;;;;;8.65;3.05;;;17.00;89.50;;;;;;5046604;28;20138;-67
2023/12/31 00:48:40;;;;;;;5.72;2.50;;;16.80;89.40;;;;;;5046900;28;20038;-67
2023/12/31 00:51:06;;;;;;;5.43;2.53;;;16.90;89.40;;;;;;5029797;28;20128;-65
2023/12/31 00:53:32;;;;;;;6.25;2.35;;;;;;;;;;5013721;28;20415;-65
2023/12/31 00:55:59;;;;;;;5.10;2.40;;;;;;;;;;5045561;28;20536;-65
2023/12/31 00:58:25;;;;;;;5.63;2.45;;;;;;;;;;5045944;28;20053;-67
2023/12/31 01:00:50;;;;;;;5.55;2.30;;;16.60;89.40;;;;;;5045643;28;20049;-67
2023/12/31 01:03:16;;;;;;;5.20;2.67;;;16.60;89.60;;;;;;4997206;28;20064;-66
2023/12/31 01:05:42;;;;;;;6.13;2.60;;;16.60;89.60;;;;;;5013542;28;20116;-67
2023/12/31 01:08:08;;;;;;;5.57;2.70;;;16.60;89.70;;;;;;5014599;28;20061;-66
2023/12/31 01:10:34;;;;;;;5.78;2.28;;;;;;;;;;5014387;28;20211;-65
2023/12/31 01:13:00;;;;;;;5.30;2.38;;;16.50;89.80;;;;;;5014500;28;20440;-66
2023/12/31 01:15:26;;;;;;;5.32;2.35;;;;;;;;;;5014053;28;20104;-66
2023/12/31 01:17:52;;;;;;;5.65;2.28;;;;;;;;;;5014010;28;20042;-66
2023/12/31 01:20:18;;;;;;;4.93;2.40;;;16.40;90.00;;;;;;5012200;28;20502;-66
2023/12/31 01:22:43;;;;;;;5.40;2.30;;;16.50;90.00;;;;;;5045832;28;20128;-67
2023/12/31 01:25:10;;;;;;;4.90;2.20;;;;;;;;;;5045247;28;20066;-67
2023/12/31 01:27:36;;;;;;;7.63;2.55;;;16.50;90.00;;;;;;5045345;28;20457;-67
2023/12/31 01:30:01;;;;;;;4.53;2.15;;;16.50;90.00;;;;;;5012455;28;20120;-66
2023/12/31 01:32:27;;;;;;;4.68;2.13;;;;;;;;;;5029010;28;20076;-67
2023/12/31 01:34:58;;;;;;;5.38;2.40;;;16.30;86.20;;;;;;5012310;28;20092;-67
2023/12/31 01:37:24;;;;;;;5.50;2.30;;;16.40;90.10;;;;;;5012153;28;20050;-67
2023/12/31 01:39:49;;;;;;;4.25;2.20;;;16.40;90.10;;;;;;4995414;28;20558;-67
2023/12/31 01:42:16;;;;;;;4.40;2.10;;;;;;;;;;5011525;28;20042;-67
2023/12/31 01:44:41;;;;;;;4.90;2.13;;;16.30;90.10;;;;;;5028730;28;20092;-66
2023/12/31 01:47:07;;;;;;;6.28;2.50;;;16.40;90.10;;;;;;5045537;28;20050;-67
2023/12/31 01:49:33;;;;;;;5.40;2.17;;;16.10;90.10;;;;;;4995509;28;20133;-67
2023/12/31 01:51:59;;;;;;;5.35;2.13;;;16.30;90.10;;;;;;4995960;28;20092;-66
2023/12/31 01:54:25;;;;;;;5.05;2.40;;;16.20;90.10;;;;;;5012820;28;20407;-67
2023/12/31 01:56:51;;;;;;;4.25;2.00;;;;;;;;;;5045096;28;20050;-67
2023/12/31 01:59:17;;;;;;;4.75;2.05;;;;;;;;;;5044575;28;20041;-67
2023/12/31 02:01:44;;;;;;;5.30;2.20;;;16.20;90.20;;;;;;5011873;28;20049;-65
2023/12/31 02:04:09;;;;;;;7.80;2.42;;;16.20;90.20;;;;;;5011644;28;20518;-66
2023/12/31 02:06:35;;;;;;;5.72;2.08;;;16.10;90.30;;;;;;5028684;28;20045;-65
2023/12/31 02:09:01;;;;;;;6.82;2.60;;;;;;;;;;5027906;28;20669;-65
2023/12/31 02:11:27;;;;;;;5.63;2.17;;;15.90;90.30;;;;;;4996178;28;20057;-65
2023/12/31 02:13:53;;;;;;;4.05;2.10;;;16.00;90.40;;;;;;4995844;28;20387;-65
2023/12/31 02:16:19;;;;;;;4.07;2.08;;;;;;;;;;5044747;28;20123;-65
2023/12/31 02:18:45;;;;;;;5.95;2.00;;;16.00;90.40;;;;;;5012109;28;20041;-64
2023/12/31 02:21:12;;;;;;;4.53;2.38;;;16.00;90.40;;;;;;5027592;28;20072;-65
2023/12/31 02:23:38;;;;;;;4.35;2.00;;;16.00;90.50;;;;;;5044968;28;20763;-65
2023/12/31 02:26:10;;;;;;;5.80;2.30;;;15.70;90.50;;;;;;5012163;28;20056;-66
2023/12/31 02:28:36;;;;;;;5.18;2.05;;;15.70;90.50;;;;;;5012453;28;20038;-65
2023/12/31 02:31:05;;;;;;;6.75;2.30;;;;;;;;;;5012328;28;20050;-65
2023/12/31 02:33:34;;;;;;;4.88;1.90;;;15.60;90.60;;;;;;5044885;28;20419;-66
2023/12/31 02:35:59;;;;;;;4.35;1.95;;;15.80;90.70;;;;;;5027158;28;20038;-65
2023/12/31 02:38:25;;;;;;;4.20;2.10;;;15.60;90.70;;;;;;5011541;28;20112;-65
2023/12/31 02:40:51;;;;;;;6.03;2.38;;;15.60;90.70;;;;;;5012565;28;20122;-65
2023/12/31 02:43:17;;;;;;;4.45;1.90;;;;;;;;;;5028089;28;20062;-65
2023/12/31 02:45:43;;;;;;;4.13;2.00;;;;;;;;;;5011026;28;20049;-64
2023/12/31 02:48:09;;;;;;;4.78;1.80;;;15.70;90.80;;;;;;5044600;28;20188;-65
2023/12/31 02:50:35;;;;;;;4.22;1.95;;;;;;;;;;5012489;28;20507;-65
2023/12/31 02:53:01;;;;;;;5.32;1.98;;;;;;;;;;5010910;28;20084;-65
2023/12/31 02:55:27;;;;;;;5.10;2.00;;;15.40;90.90;;;;;;5027245;28;20168;-65
2023/12/31 02:57:52;;;;;;;4.80;1.73;;;15.40;90.90;;;;;;5027417;28;20073;-65
2023/12/31 03:00:19;;;;;;;4.40;2.03;;;;;;;;;;5028035;28;20050;-65
2023/12/31 03:02:45;;;;;;;6.00;2.08;;;;;;;;;;4995424;28;20435;-65
2023/12/31 03:05:12;;;;;;;3.90;1.70;;;15.20;89.70;;;;;;4994768;28;20077;-65
2023/12/31 03:07:38;;;;;;;4.07;1.75;;;;;;;;;;5010208;28;20084;-65
2023/12/31 03:10:04;;;;;;;4.25;1.80;;;15.20;89.90;;;;;;5010869;28;20061;-65
2023/12/31 03:12:30;;;;;;;3.97;2.00;;;15.30;91.10;;;;;;4979099;28;20058;-65
2023/12/31 03:14:56;;;;;;;3.72;1.70;;;;;;;;;;5012633;28;20472;-64
2023/12/31 03:17:23;;;;;;;4.15;1.90;;;;;;;;;;5012522;28;20067;-65
2023/12/31 03:19:50;;;;;;;4.38;1.67;;;15.00;89.90;;;;;;5043769;28;20042;-64
2023/12/31 03:22:15;;;;;;;4.07;1.80;;;15.20;91.20;;;;;;5026669;28;20483;-65
2023/12/31 03:24:43;;;;;;;4.00;1.90;;;14.90;89.80;;;;;;5010729;28;20044;-65
2023/12/31 03:27:09;;;;;;;3.85;1.80;;;15.10;91.20;;;;;;5026884;28;20057;-65
2023/12/31 03:29:35;;;;;;;4.15;2.05;;;15.10;89.60;;;;;;5003764;28;20053;-65
2023/12/31 03:32:02;;;;;;;4.80;2.00;;;;;;;;;;5046692;28;20059;-65
2023/12/31 03:34:28;;;;;;;5.60;2.83;;;;;;;;;;5020219;28;20494;-66
2023/12/31 03:36:54;;;;;;;6.22;2.80;;;;;;;;;;5043862;28;20404;-66
2023/12/31 03:39:20;;;;;;;6.80;3.08;;;;;;;;;;5010432;28;20050;-66
2023/12/31 03:41:48;;;;;;;6.30;2.72;;;14.90;91.30;;;;;;5043901;28;20377;-65
2023/12/31 03:44:14;;;;;;;7.18;3.30;;;;;;;;;;5010464;28;20053;-65
2023/12/31 03:46:41;;;;;;;6.55;2.90;;;;;;;;;;5017130;28;20147;-65
2023/12/31 03:49:07;;;;;;;7.03;2.78;;;14.80;91.30;;;;;;5043908;28;20438;-65
2023/12/31 03:51:33;;;;;;;5.10;2.40;;;14.90;91.40;;;;;;5043717;28;20061;-65
2023/12/31 03:53:59;;;;;;;6.45;2.58;;;14.90;91.40;;;;;;5027804;28;20403;-66
2023/12/31 03:56:25;;;;;;;5.68;2.47;;;14.90;90.60;;;;;;5043629;28;20049;-66
2023/12/31 03:58:51;;;;;;;4.90;2.38;;;;;;;;;;5010827;28;20088;-65
2023/12/31 04:01:16;;;;;;;6.07;2.30;;;14.90;91.50;;;;;;5011584;28;20104;-65
2023/12/31 04:03:43;;;;;;;4.70;2.22;;;;;;;;;;5010758;28;20045;-65
2023/12/31 04:06:09;;;;;;;4.75;2.40;;;14.80;91.50;;;;;;5013267;28;20045;-65
2023/12/31 04:08:35;;;;;;;3.90;2.00;;;;;;;;;;5047119;28;20037;-65
2023/12/31 04:11:01;;;;;;;4.30;1.98;;;;;;;;;;5014871;28;20465;-65
2023/12/31 04:13:28;;;;;;;4.60;2.17;;;14.80;91.60;;;;;;4997994;28;20123;-65
2023/12/31 04:15:54;;;;;;;3.70;2.00;;;;;;;;;;5013934;28;20049;-65
2023/12/31 04:18:20;;;;;;;4.88;2.03;;;;;;;;;;5046854;28;20100;-65
2023/12/31 04:20:47;;;;;;;6.13;2.20;;;;;;;;;;5013712;28;20439;-65
2023/12/31 04:23:13;;;;;;;4.57;2.00;;;;;;;;;;5046224;28;20080;-65
2023/12/31 04:25:38;;;;;;;5.10;2.00;;;14.60;91.60;;;;;;5046442;28;20116;-65
2023/12/31 04:28:04;;;;;;;4.72;1.90;;;14.50;91.60;;;;;;5030154;28;20496;-66
2023/12/31 04:30:30;;;;;;;3.53;1.88;;;14.60;91.60;;;;;;5014990;28;20430;-65
2023/12/31 04:32:56;;;;;;;3.35;1.85;;;;;;;;;;5013606;28;20125;-66
2023/12/31 04:35:22;;;;;;;4.22;1.80;;;;;;;;;;5046296;28;20050;-65
2023/12/31 04:37:48;;;;;;;3.22;1.70;;;14.50;91.80;;;;;;5013860;28;20100;-65
2023/12/31 04:40:14;;;;;;;4.78;2.00;;;14.50;91.80;;;;;;5045647;28;20084;-65
2023/12/31 04:42:41;;;;;;;4.00;1.67;;;;;;;;;;4997228;28;20053;-65
2023/12/31 04:45:09;;;;;;;3.28;1.70;;;14.60;91.90;;;;;;5029988;28;20049;-65
2023/12/31 04:47:35;;;;;;;3.97;1.90;;;14.50;91.80;;;;;;5012970;28;20061;-65
2023/12/31 04:50:01;;;;;;;4.07;1.80;;;14.50;91.90;;;;;;5046752;28;20050;-66
2023/12/31 04:52:27;;;;;;;3.88;1.85;;;14.50;91.90;;;;;;5014594;28;20050;-65
2023/12/31 04:54:53;;;;;;;4.03;1.88;;;;;;;;;;5013342;28;20038;-65
2023/12/31 04:57:19;;;;;;;3.97;1.80;;;;;;;;;;5014862;28;20054;-65
2023/12/31 04:59:45;;;;;;;4.30;2.10;;;14.50;91.90;;;;;;5013418;28;20096;-65
2023/12/31 05:02:11;;;;;;;4.10;1.60;;;14.50;91.90;;;;;;5014801;28;20042;-65
2023/12/31 05:04:36;;;;;;;5.72;1.70;;;14.40;91.90;;;;;;5046644;28;20396;-65
2023/12/31 05:07:02;;;;;;;3.47;1.63;;;14.50;91.90;;;;;;5045829;28;20050;-65
2023/12/31 05:09:28;;;;;;;3.47;1.73;;;14.50;91.90;;;;;;5014227;28;20472;-65
2023/12/31 05:11:54;;;;;;;3.67;1.90;;;;;;;;;;5022781;28;20056;-65
2023/12/31 05:14:20;;;;;;;4.07;1.90;;;14.50;91.90;;;;;;5045930;28;20439;-66
2023/12/31 05:16:46;;;;;;;3.60;1.67;;;14.40;91.90;;;;;;5012849;28;20041;-66
2023/12/31 05:19:12;;;;;;;3.55;1.75;;;14.30;91.90;;;;;;5013682;28;20504;-65
2023/12/31 05:21:39;;;;;;;4.20;1.80;;;14.40;91.90;;;;;;5045181;28;20077;-65
2023/12/31 05:24:05;;;;;;;3.40;1.60;;;14.30;91.90;;;;;;5014414;28;20049;-65
2023/12/31 05:26:31;;;;;;;3.67;1.80;;;14.40;91.90;;;;;;5011358;28;20049;-66
2023/12/31 05:28:58;;;;;;;3.55;1.50;;;;;;;;;;5012307;28;20050;-66
2023/12/31 05:31:25;;;;;;;3.55;1.77;;;;;;;;;;5014086;28;20041;-66
2023/12/31 05:33:50;;;;;;;5.30;2.13;;;14.30;91.90;;;;;;5029303;28;20400;-66
2023/12/31 05:36:16;;;;;;;4.22;2.17;;;14.30;92.00;;;;;;5028375;28;20046;-65
2023/12/31 05:38:42;;;;;;;4.38;1.88;;;14.30;92.00;;;;;;5045244;28;20042;-65
2023/12/31 05:41:08;;;;;;;3.60;1.83;;;;;;;;;;5012213;28;20056;-65
2023/12/31 05:43:34;;;;;;;3.80;1.80;;;;;;;;;;5013988;28;20042;-65
2023/12/31 05:46:00;;;;;;;3.63;1.90;;;;;;;;;;5012145;28;20046;-65
2023/12/31 05:48:27;;;;;;;3.10;1.80;;;;;;;;;;5045722;28;20065;-65
2023/12/31 05:50:53;;;;;;;4.03;1.90;;;14.20;92.00;;;;;;5044901;28;20061;-65
2023/12/31 05:53:19;;;;;;;4.15;2.05;;;;;;;;;;5012187;28;20056;-65
2023/12/31 05:55:46;;;;;;;5.57;2.30;;;;;;;;;;5012118;28;20089;-65
2023/12/31 05:58:12;;;;;;;3.53;1.80;;;;;;;;;;5045152;28;20050;-65
2023/12/31 06:00:38;;;;;;;3.45;1.90;;;;;;;;;;4995972;28;20089;-65
2023/12/31 06:03:04;;;;;;;5.60;2.28;;;;;;;;;;5011114;28;20046;-65
2023/12/31 06:05:30;;;;;;;3.78;1.95;;;14.00;92.20;;;;;;5013459;28;20046;-65
2023/12/31 06:07:56;;;;;;;3.78;1.80;;;;;;;;;;5011657;28;20050;-65
2023/12/31 06:10:22;;;;;;;4.95;2.03;;;;;;;;;;5045031;28;20053;-65
2023/12/31 06:12:49;;;;;;;4.40;1.98;;;14.10;91.10;;;;;;5044453;28;20053;-65
2023/12/31 06:15:15;;;;;;;3.92;1.75;;;13.90;92.20;;;;;;5028819;28;20060;-66
2023/12/31 06:17:41;;;;;;;3.78;1.75;;;13.90;92.20;;;;;;5027828;28;20466;-65
2023/12/31 06:20:07;;;;;;;4.60;2.20;;;;;;;;;;5044648;28;20050;-66
2023/12/31 06:22:33;;;;;;;4.03;1.90;;;14.10;92.40;;;;;;5028335;28;20049;-65
2023/12/31 06:24:59;;;;;;;3.97;1.80;;;13.90;92.40;;;;;;5043574;28;20049;-65
2023/12/31 06:27:25;;;;;;;3.90;1.80;;;14.10;92.40;;;;;;5011037;28;20056;-64
2023/12/31 06:29:51;;;;;;;3.15;1.70;;;13.90;91.70;;;;;;5010938;28;20050;-67
2023/12/31 06:32:18;;;;;;;4.68;2.00;;;14.00;91.20;;;;;;5027747;28;20054;-67
2023/12/31 06:34:44;;;;;;;3.28;1.90;;;13.80;92.40;;;;;;5013139;28;20049;-68
2023/12/31 06:37:09;;;;;;;3.20;1.88;;;14.00;92.40;;;;;;5012931;28;20113;-67
2023/12/31 06:39:35;;;;;;;4.55;1.80;;;13.90;92.40;;;;;;5044261;28;20072;-67
2023/12/31 06:42:01;;;;;;;3.72;2.10;;;;;;;;;;5012594;28;20087;-67
2023/12/31 06:44:28;;;;;;;3.05;1.80;;;;;;;;;;5044502;28;20042;-67
2023/12/31 06:46:54;;;;;;;3.53;1.90;;;14.00;92.50;;;;;;5011371;28;20058;-65
2023/12/31 06:49:20;;;;;;;6.55;2.00;;;;;;;;;;5011697;28;20034;-66
2023/12/31 06:51:46;;;;;;;4.55;2.15;;;13.90;92.50;;;;;;5010609;28;20053;-66
2023/12/31 06:54:12;;;;;;;4.30;1.98;;;;;;;;;;5013216;28;20038;-66
2023/12/31 06:56:38;;;;;;;3.72;1.90;;;;;;;;;;5011427;28;20411;-66
2023/12/31 06:59:05;;;;;;;2.88;1.73;;;;;;;;;;5011511;28;20581;-66
2023/12/31 07:01:31;;;;;;;3.70;1.73;;;;;;;;;;5027181;28;20099;-67
2023/12/31 07:03:57;;;;;;;4.03;2.10;;;;;;;;;;5011256;28;20404;-66
2023/12/31 07:06:23;;;;;;;5.47;2.00;;;;;;;;;;5011096;28;20129;-68
2023/12/31 07:08:49;;;;;;;5.05;1.98;;;;;;;;;;5012725;28;20096;-66
2023/12/31 07:11:16;;;;;;;4.57;1.98;;;13.90;92.40;;;;;;5044541;28;20117;-67
2023/12/31 07:13:43;;;;;;;4.25;2.00;;;14.00;91.60;;;;;;5012160;28;20458;-68
2023/12/31 07:16:09;;;;;;;3.63;1.90;;;;;;;;;;5043979;28;20057;-67
2023/12/31 07:18:36;;;;;;;4.53;1.90;;;13.90;92.50;;;;;;5044477;28;20057;-67
2023/12/31 07:21:02;;;;;;;4.63;2.03;;;13.90;92.50;;;;;;5011046;28;20450;-67
2023/12/31 07:23:28;;;;;;;3.45;1.98;;;13.90;91.60;;;;;;5044029;28;20125;-67
2023/12/31 07:25:55;;;;;;;3.40;1.98;;;;;;;;;;4994106;28;20162;-68
2023/12/31 07:28:20;;;;;;;3.35;2.15;;;13.80;92.40;;;;;;5043821;28;20064;-67
2023/12/31 07:30:47;;;;;;;3.63;1.80;;;13.80;92.40;;;;;;4994279;28;20038;-67
2023/12/31 07:33:12;;;;;;;4.60;2.13;;;13.90;92.40;;;;;;5011673;28;20443;-66
2023/12/31 07:35:41;;;;;;;3.20;1.80;;;;;;;;;;5012632;28;20080;-65
2023/12/31 07:38:08;;;;;;;3.95;2.00;;;13.80;92.40;;;;;;5044232;28;20146;-65
2023/12/31 07:40:34;;;;;;;4.35;1.85;;;13.90;92.50;;;;;;4995176;28;20181;-65
2023/12/31 07:43:00;;;;;;;4.38;2.00;;;;;;;;;;5030688;28;20053;-63
2023/12/31 07:45:26;;;;;;;2.88;1.70;;;14.00;92.60;;;;;;5047874;28;20042;-65
2023/12/31 07:47:53;;;;;;;4.22;2.08;;;14.00;92.50;;;;;;5043177;28;20050;-67
2023/12/31 07:50:20;;;;;;;4.13;2.00;;;14.00;92.50;;;;;;4993790;28;20076;-67
2023/12/31 07:52:46;;;;;;;7.60;1.98;;;14.00;92.50;;;;;;5013794;28;20125;-67
2023/12/31 07:55:13;;;;;;;3.67;1.90;;;;;;;;;;5012049;28;20452;-65
2023/12/31 07:57:39;;;;;;;4.80;2.00;;;13.90;92.50;;;;;;5030058;28;20193;-65
2023/12/31 08:00:06;;;;;;;3.63;2.00;;;13.90;92.50;;;;;;5048085;28;20125;-64
2023/12/31 08:02:32;;;;;;;3.22;1.80;;;;;;;;;;5040947;28;20045;-65
2023/12/31 08:04:58;;;;;;;5.30;1.90;;;;;;;;;;5005317;28;20073;-65
2023/12/31 08:07:24;;;;;;;2.95;1.60;;;14.10;92.50;;;;;;5012637;28;20045;-65
2023/12/31 08:09:50;;;;;;;3.55;1.77;;;14.00;92.50;;;;;;5013571;28;20040;-65
2023/12/31 08:12:15;;;;;;;3.75;2.05;;;13.90;92.50;;;;;;5013687;28;20041;-65
2023/12/31 08:14:42;;;;;;;3.97;1.90;;;;;;;;;;5013497;28;20449;-65
2023/12/31 08:17:08;;;;;;;4.63;1.88;;;14.00;92.50;;;;;;5015078;28;20042;-65
2023/12/31 08:19:34;;;;;;;3.80;1.80;;;13.90;92.30;;;;;;5011728;28;20533;-65
2023/12/31 08:22:00;;;;;;;4.40;1.92;;;;;;;;;;5046949;28;20054;-65
2023/12/31 08:24:26;;;;;;;4.53;1.95;;;;;;;;;;5008154;28;20125;-67
2023/12/31 08:26:52;;;;;;;3.92;1.85;;;;;;;;;;4993986;28;20149;-66
2023/12/31 08:29:18;;;;;;;3.63;1.77;;;14.00;92.40;;;;;;5021463;28;20081;-66
2023/12/31 08:31:52;;;;;;;4.40;2.00;;;;;;;;;;5021821;28;20084;-64
2023/12/31 08:34:18;;;;;;;17.02;8.95;;;;;;;;;;5029116;28;20381;-64
2023/12/31 08:36:44;;;;;;;230.40;155.18;;;13.90;92.50;;;;;;5011952;28;20407;-65
2023/12/31 08:39:10;;;;;;;434.75;316.52;;;;;;;;;;5013639;28;20045;-65
2023/12/31 08:41:36;;;;;;;461.75;349.10;;;13.80;92.60;;;;;;5011038;28;20121;-63
2023/12/31 08:44:03;;;;;;;392.20;317.05;;;13.80;92.70;;;;;;5013562;28;20124;-65
2023/12/31 08:46:30;;;;;;;384.50;334.08;;;14.00;92.60;;;;;;5011303;28;20064;-65
2023/12/31 08:48:56;;;;;;;334.88;287.02;;;;;;;;;;5046514;28;20081;-65
2023/12/31 08:51:22;;;;;;;272.85;236.80;;;;;;;;;;5006559;28;20690;-65
2023/12/31 08:53:48;;;;;;;270.70;235.18;;;;;;;;;;5040621;28;20516;-64
2023/12/31 08:56:14;;;;;;;244.85;217.73;;;;;;;;;;5012488;28;20443;-65
2023/12/31 08:58:40;;;;;;;223.02;198.52;;;;;;;;;;5046502;28;20046;-65
2023/12/31 09:01:08;;;;;;;212.75;189.60;;;14.60;92.30;;;;;;5017841;28;20049;-65
2023/12/31 09:03:34;;;;;;;190.75;169.65;;;;;;;;;;5021414;28;20128;-65
2023/12/31 09:06:00;;;;;;;179.85;159.32;;;15.00;92.00;;;;;;5009358;28;20422;-67
2023/12/31 09:08:26;;;;;;;158.52;141.18;;;15.20;91.70;;;;;;5020417;28;20038;-65
2023/12/31 09:10:54;;;;;;;145.68;130.07;;;15.70;91.50;;;;;;5011195;28;20042;-65
2023/12/31 09:13:22;;;;;;;136.90;122.22;;;16.10;91.20;;;;;;5011005;28;20117;-65
2023/12/31 09:15:48;;;;;;;140.50;125.70;;;16.40;90.90;;;;;;5003034;28;20077;-66
2023/12/31 09:18:16;;;;;;;162.90;146.57;;;;;;;;;;5027664;28;20054;-67
2023/12/31 09:20:42;;;;;;;141.35;127.22;;;;;;;;;;5043602;28;20530;-64
2023/12/31 09:23:09;;;;;;;131.18;117.60;;;;;;;;;;5043733;28;20038;-65
2023/12/31 09:25:35;;;;;;;117.20;105.88;;;17.40;87.70;;;;;;5008725;28;20065;-67
2023/12/31 09:28:01;;;;;;;111.30;100.40;;;17.40;89.50;;;;;;5012567;28;20054;-64
2023/12/31 09:30:26;;;;;;;89.72;81.15;;;17.40;86.20;;;;;;5009673;28;20057;-66
2023/12/31 09:32:52;;;;;;;95.68;86.25;;;17.40;89.00;;;;;;5029245;28;20046;-68
2023/12/31 09:35:18;;;;;;;87.72;79.15;;;;;;;;;;5010048;28;20046;-67
2023/12/31 09:37:44;;;;;;;70.65;63.75;;;17.30;88.70;;;;;;5011880;28;20033;-67
2023/12/31 09:40:10;;;;;;;69.88;62.78;;;;;;;;;;5012512;28;20196;-67
2023/12/31 09:42:46;;;;;;;64.68;58.58;;;17.40;85.60;;;;;;4994392;28;20204;-67
2023/12/31 09:45:12;;;;;;;59.17;53.42;;;;;;;;;;5045669;28;20053;-65
2023/12/31 09:47:37;;;;;;;54.95;49.65;;;17.20;88.60;;;;;;5044312;28;20045;-66
2023/12/31 09:50:04;;;;;;;52.30;47.33;;;;;;;;;;5023441;28;20403;-66
2023/12/31 09:52:29;;;;;;;50.17;45.38;;;17.20;85.60;;;;;;5000213;28;20155;-65
2023/12/31 09:54:56;;;;;;;406.25;341.80;;;;;;;;;;4979939;28;20089;-66
2023/12/31 09:57:22;;;;;;;420.98;336.70;;;17.20;88.70;;;;;;5035724;28;20073;-67
2023/12/31 09:59:49;;;;;;;345.02;277.65;;;17.10;88.80;;;;;;5022389;28;20051;-67
2023/12/31 10:02:19;;;;;;;322.60;259.08;;;;;;;;;;5025220;28;20053;-66
2023/12/31 10:04:45;;;;;;;316.30;256.33;;;17.00;88.90;;;;;;5010915;28;20369;-65
2023/12/31 10:07:12;;;;;;;299.10;243.88;;;;;;;;;;5005813;28;20054;-66
2023/12/31 10:09:38;;;;;;;236.00;186.57;;;17.00;88.80;;;;;;5008556;28;20114;-66
2023/12/31 10:12:04;;;;;;;236.18;189.15;;;16.80;88.70;;;;;;5041714;28;20184;-66
2023/12/31 10:14:29;;;;;;;231.75;184.15;;;16.90;88.80;;;;;;4995106;28;20120;-66
2023/12/31 10:16:55;;;;;;;218.63;171.65;;;16.80;88.70;;;;;;5011795;28;20137;-67
2023/12/31 10:19:21;;;;;;;172.48;137.57;;;;;;;;;;5011015;28;20054;-66
2023/12/31 10:21:47;;;;;;;176.30;139.48;;;17.00;88.50;;;;;;5041687;28;20108;-67
2023/12/31 10:24:13;;;;;;;168.40;133.10;;;17.20;88.60;;;;;;5011885;28;20488;-67
2023/12/31 10:26:40;;;;;;;150.95;121.70;;;17.10;88.50;;;;;;5011543;28;20069;-67
2023/12/31 10:29:05;;;;;;;149.48;118.22;;;17.10;88.40;;;;;;5011719;28;20046;-67
2023/12/31 10:31:31;;;;;;;136.02;109.80;;;17.10;87.90;;;;;;5008723;28;20052;-65
2023/12/31 10:34:15;;;;;;;116.70;95.30;;;17.30;85.90;;;;;;5010812;28;20049;-67
2023/12/31 10:36:41;;;;;;;111.80;91.65;;;17.20;88.30;;;;;;5010149;28;20045;-65
2023/12/31 10:39:08;;;;;;;99.88;84.05;;;17.10;88.20;;;;;;5009862;28;20038;-67
2023/12/31 10:41:35;;;;;;;93.45;77.47;;;;;;;;;;5005080;28;20042;-65
2023/12/31 10:44:03;;;;;;;100.05;88.93;;;17.10;88.30;;;;;;5011198;28;20389;-68
2023/12/31 10:46:29;;;;;;;107.85;96.72;;;;;;;;;;5025652;28;20053;-67
2023/12/31 10:49:01;;;;;;;80.97;72.55;;;17.20;88.20;;;;;;5025638;28;20049;-67
2023/12/31 10:51:27;;;;;;;78.57;70.47;;;17.30;88.30;;;;;;4992617;28;20128;-67
2023/12/31 10:53:58;;;;;;;74.97;67.13;;;;;;;;;;4993732;28;20156;-67
2023/12/31 10:56:25;;;;;;;69.22;62.17;;;17.30;88.10;;;;;;4998566;28;20550;-67
2023/12/31 10:58:54;;;;;;;64.20;57.40;;;17.30;85.70;;;;;;5025894;28;20519;-67
2023/12/31 11:01:21;;;;;;;59.45;53.30;;;17.20;85.50;;;;;;4974232;28;20053;-65
2023/12/31 11:03:48;;;;;;;54.83;49.03;;;17.10;88.00;;;;;;5010077;28;20408;-65
2023/12/31 11:06:14;;;;;;;51.67;46.33;;;;;;;;;;5010027;28;20054;-65
2023/12/31 11:08:40;;;;;;;45.47;40.75;;;17.10;87.90;;;;;;5013819;28;20194;-65
2023/12/31 11:11:06;;;;;;;41.15;36.83;;;;;;;;;;4987578;28;20129;-65
2023/12/31 11:13:31;;;;;;;37.65;33.70;;;17.10;88.00;;;;;;5037541;28;20056;-65
2023/12/31 11:15:58;;;;;;;34.53;30.80;;;16.80;88.00;;;;;;5013961;28;20045;-65
2023/12/31 11:18:38;;;;;;;31.70;28.40;;;16.90;85.60;;;;;;5016735;28;20038;-68
2023/12/31 11:21:36;;;;;;;29.98;26.83;;;16.70;84.60;;;;;;4998737;28;20053;-68
2023/12/31 11:24:13;;;;;;;23.08;20.67;;;16.80;84.70;;;;;;5010067;28;20131;-68
2023/12/31 11:26:40;;;;;;;23.05;19.80;;;16.80;86.00;;;;;;5047872;28;20416;-68
2023/12/31 11:29:13;;;;;;;18.15;16.23;;;;;;;;;;5027323;28;20054;-66
2023/12/31 11:31:40;;;;;;;16.35;13.98;;;;;;;;;;5046835;28;20046;-69
2023/12/31 11:34:07;;;;;;;13.68;11.68;;;16.60;88.60;;;;;;5028977;28;20491;-68
2023/12/31 11:36:33;;;;;;;12.05;10.70;;;16.40;88.70;;;;;;4998508;28;20054;-69
2023/12/31 11:39:07;;;;;;;12.88;10.30;;;16.10;84.80;;;;;;5046776;28;20112;-69
2023/12/31 11:41:49;;;;;;;10.23;8.77;;;15.30;86.30;;;;;;5029332;28;20061;-65
2023/12/31 11:44:35;;;;;;;9.95;7.90;;;16.10;85.30;;;;;;4998694;28;20121;-70
2023/12/31 11:47:00;;;;;;;9.02;6.80;;;16.20;89.10;;;;;;5043100;28;20058;-69
2023/12/31 11:49:26;;;;;;;8.00;6.25;;;16.10;89.20;;;;;;5046515;28;20041;-69
2023/12/31 11:51:56;;;;;;;8.45;5.75;;;16.40;89.30;;;;;;5013754;28;20121;-69
2023/12/31 11:54:27;;;;;;;6.80;5.38;;;;;;;;;;5012281;28;20056;-69
2023/12/31 11:56:53;;;;;;;7.07;4.53;;;16.40;89.20;;;;;;5013569;28;20447;-68
2023/12/31 11:59:19;;;;;;;17.52;4.78;;;16.30;88.90;;;;;;5012756;28;20033;-69
2023/12/31 12:01:45;;;;;;;8.73;4.18;;;;;;;;;;5013243;28;20785;-65
2023/12/31 12:04:11;;;;;;;18.45;5.78;;;16.30;88.50;;;;;;5013059;28;20558;-67
2023/12/31 12:06:39;;;;;;;21.35;12.10;;;;;;;;;;5028570;28;20046;-66
2023/12/31 12:09:05;;;;;;;19.98;9.70;;;;;;;;;;5047645;28;20049;-66
2023/12/31 12:11:32;;;;;;;12.05;6.93;;;16.20;86.40;;;;;;5007323;28;20145;-66
2023/12/31 12:13:59;;;;;;;11.90;6.53;;;;;;;;;;5038293;28;20555;-70
2023/12/31 12:16:28;;;;;;;14.57;6.25;;;;;;;;;;5026374;28;20488;-73
2023/12/31 12:19:01;;;;;;;7.55;5.03;;;16.30;85.70;;;;;;4994435;28;20050;-71
2023/12/31 12:21:28;;;;;;;10.68;4.78;;;16.20;89.20;;;;;;5009965;28;20059;-72
2023/12/31 12:23:54;;;;;;;5.78;4.20;;;16.10;89.60;;;;;;5013557;28;20046;-73
2023/12/31 12:26:20;;;;;;;6.45;3.97;;;16.20;89.60;;;;;;5024594;28;20504;-73
2023/12/31 12:28:47;;;;;;;8.15;3.88;;;16.30;89.80;;;;;;5046082;28;20057;-70
2023/12/31 12:31:17;;;;;;;8.65;3.90;;;16.20;89.00;;;;;;5011915;28;20054;-67
2023/12/31 12:33:44;;;;;;;5.68;3.45;;;16.40;89.90;;;;;;5028863;28;20125;-72
2023/12/31 12:36:10;;;;;;;5.75;3.40;;;;;;;;;;5013383;28;20046;-73
2023/12/31 12:38:37;;;;;;;6.50;3.10;;;;;;;;;;5047036;28;20049;-71
2023/12/31 12:41:04;;;;;;;5.65;2.95;;;16.30;89.60;;;;;;4996571;28;20541;-71
2023/12/31 12:43:31;;;;;;;4.15;2.40;;;16.40;89.50;;;;;;5010540;28;20061;-72
2023/12/31 12:46:06;;;;;;;6.00;2.20;;;16.60;85.80;;;;;;5044789;28;20530;-72
2023/12/31 12:48:38;;;;;;;4.90;2.55;;;16.40;89.30;;;;;;5029837;28;20061;-72
2023/12/31 12:51:04;;;;;;;5.15;2.30;;;16.70;89.30;;;;;;5012407;28;20396;-65
2023/12/31 12:53:30;;;;;;;3.42;2.10;;;16.70;89.10;;;;;;5029687;28;20042;-72
2023/12/31 12:55:55;;;;;;;4.45;2.10;;;16.60;89.00;;;;;;5013462;28;20041;-73
2023/12/31 12:58:22;;;;;;;3.75;1.90;;;16.70;88.80;;;;;;5043446;28;20535;-67
2023/12/31 13:00:48;;;;;;;3.47;1.80;;;;;;;;;;5012332;28;20408;-69
2023/12/31 13:03:14;;;;;;;4.90;1.80;;;16.70;87.50;;;;;;5010441;28;20073;-72
2023/12/31 13:05:40;;;;;;;6.63;2.10;;;16.80;88.80;;;;;;4996537;28;20100;-71
2023/12/31 13:08:06;;;;;;;4.68;1.60;;;16.50;88.80;;;;;;5013764;28;20091;-66
2023/12/31 13:10:31;;;;;;;4.10;1.55;;;16.50;85.80;;;;;;5012062;28;20050;-65
2023/12/31 13:12:58;;;;;;;4.22;1.73;;;;;;;;;;4998234;28;20045;-71